Time;durP1;ratioP1;P1;durP2;ratioP2;P2;SDS_P1;SDS_P2;PMS_P1;PMS_P2;Temp;Humidity;BMP_temperature;BMP_pressure;BME280_temperature;BME280_humidity;BME280_pressure;Samples;Min_cycle;Max_cycle;Signal;HPM_P1;HPM_P2
2021/07/31 00:01:13;;;;;;;;;;;26.40;95.70;;;;;;6192506;23;19958;-42
2021/07/31 00:03:40;;;;;;;;;;;26.40;95.60;;;;;;6192743;23;19939;-45
2021/07/31 00:06:06;;;;;;;;;;;26.40;95.60;;;;;;6192405;23;19949;-44
2021/07/31 00:08:33;;;;;;;;;;;26.30;95.70;;;;;;6192209;23;19912;-42
2021/07/31 00:11:02;;;;;;;;;;;26.30;95.80;;;;;;6166252;23;19901;-42
2021/07/31 00:13:28;;;;;;;;;;;26.30;95.80;;;;;;6166807;22;19915;-45
2021/07/31 00:15:55;;;;;;;;;;;26.30;95.70;;;;;;6166311;23;19904;-43
2021/07/31 00:18:22;;;;;;;;;;;26.30;95.80;;;;;;6193226;23;20176;-47
2021/07/31 00:20:48;;;;;;;;;;;26.20;96.00;;;;;;6193029;23;19956;-42
2021/07/31 00:23:14;;;;;;;;;;;26.20;96.10;;;;;;6166259;23;19909;-44
2021/07/31 00:25:40;;;;;;;;;;;26.20;96.00;;;;;;6166736;23;19946;-43
2021/07/31 00:28:07;;;;;;;;;;;26.30;96.00;;;;;;6166731;22;20167;-45
2021/07/31 00:30:34;;;;;;;;;;;26.30;96.00;;;;;;6192255;23;20180;-45
2021/07/31 00:33:00;;;;;;;;;;;26.30;96.00;;;;;;6192349;22;20092;-43
2021/07/31 00:35:26;;;;;;;;;;;26.30;95.80;;;;;;6191706;22;19904;-43
2021/07/31 00:37:52;;;;;;;;;;;26.30;95.80;;;;;;6192369;23;20099;-43
2021/07/31 00:40:19;;;;;;;;;;;26.40;95.80;;;;;;6192401;22;19952;-42
2021/07/31 00:42:45;;;;;;;;;;;26.30;95.70;;;;;;6166141;23;20034;-44
2021/07/31 00:45:16;;;;;;;;;;;26.30;95.60;;;;;;6166372;22;19904;-42
2021/07/31 00:47:42;;;;;;;;;;;26.40;95.70;;;;;;6166284;23;19930;-42
2021/07/31 00:50:09;;;;;;;;;;;26.40;95.70;;;;;;6191747;23;19923;-51
2021/07/31 00:52:36;;;;;;;;;;;26.40;95.60;;;;;;6192547;22;19955;-45
2021/07/31 00:55:02;;;;;;;;;;;26.40;95.60;;;;;;6166168;23;19908;-49
2021/07/31 00:57:29;;;;;;;;;;;26.40;95.60;;;;;;6192343;23;19915;-44
2021/07/31 00:59:55;;;;;;;;;;;26.40;95.80;;;;;;6192067;22;20188;-43
2021/07/31 01:02:22;;;;;;;;;;;26.40;95.60;;;;;;6192376;22;19935;-42
2021/07/31 01:04:48;;;;;;;;;;;26.40;95.60;;;;;;6192209;23;19906;-42
2021/07/31 01:07:14;;;;;;;;;;;26.40;95.60;;;;;;6191394;23;20196;-48
2021/07/31 01:09:40;;;;;;;;;;;26.40;95.90;;;;;;6192358;22;20074;-46
2021/07/31 01:12:07;;;;;;;;;;;26.40;95.80;;;;;;6192354;22;19920;-42
2021/07/31 01:14:33;;;;;;;;;;;26.40;95.70;;;;;;6192057;23;20118;-45
2021/07/31 01:16:59;;;;;;;;;;;26.40;95.70;;;;;;6192246;23;19947;-42
2021/07/31 01:19:25;;;;;;;;;;;26.40;95.70;;;;;;6192116;23;19900;-42
2021/07/31 01:21:52;;;;;;;;;;;26.40;95.60;;;;;;6192229;22;19952;-45
2021/07/31 01:24:18;;;;;;;;;;;26.40;95.60;;;;;;6192115;23;19912;-42
2021/07/31 01:26:45;;;;;;;;;;;26.30;95.60;;;;;;6192177;23;19924;-39
2021/07/31 01:29:13;;;;;;;;;;;26.30;95.60;;;;;;6192909;22;20091;-45
2021/07/31 01:31:39;;;;;;;;;;;26.30;95.70;;;;;;6141699;23;19904;-47
2021/07/31 01:34:06;;;;;;;;;;;26.20;95.70;;;;;;6192849;23;19922;-43
2021/07/31 01:36:32;;;;;;;;;;;26.20;95.90;;;;;;6165869;22;19949;-51
2021/07/31 01:38:59;;;;;;;;;;;26.20;95.90;;;;;;6166514;23;19908;-44
2021/07/31 01:41:26;;;;;;;;;;;26.20;95.70;;;;;;6192101;23;20112;-41
2021/07/31 01:43:53;;;;;;;;;;;26.20;95.90;;;;;;6192876;22;19955;-40
2021/07/31 01:46:20;;;;;;;;;;;26.20;95.90;;;;;;6191742;23;19924;-41
2021/07/31 01:48:47;;;;;;;;;;;26.10;96.00;;;;;;6166133;23;19950;-41
2021/07/31 01:51:13;;;;;;;;;;;26.10;96.00;;;;;;6191941;23;20211;-41
2021/07/31 01:53:39;;;;;;;;;;;26.10;96.00;;;;;;6191904;23;20129;-48
2021/07/31 01:56:06;;;;;;;;;;;26.10;96.10;;;;;;6191576;22;19908;-41
2021/07/31 01:58:33;;;;;;;;;;;26.10;96.10;;;;;;6192622;22;19935;-43
2021/07/31 02:00:59;;;;;;;;;;;26.10;96.10;;;;;;6191475;23;19907;-41
2021/07/31 02:03:26;;;;;;;;;;;26.10;96.00;;;;;;6192339;23;19908;-43
2021/07/31 02:05:52;;;;;;;;;;;26.00;96.00;;;;;;6191691;23;19912;-41
2021/07/31 02:08:19;;;;;;;;;;;26.00;96.00;;;;;;6191838;23;19915;-45
2021/07/31 02:10:48;;;;;;;;;;;26.00;96.10;;;;;;6192147;23;19926;-43
2021/07/31 02:13:14;;;;;;;;;;;26.00;96.00;;;;;;6192204;23;19915;-42
2021/07/31 02:15:44;;;;;;;;;;;26.00;96.00;;;;;;6191700;23;19908;-43
2021/07/31 02:18:10;;;;;;;;;;;26.00;96.10;;;;;;6192163;22;19939;-40
2021/07/31 02:20:37;;;;;;;;;;;25.90;96.10;;;;;;6191743;23;19908;-41
2021/07/31 02:23:03;;;;;;;;;;;25.90;96.10;;;;;;6191932;22;19950;-45
2021/07/31 02:25:30;;;;;;;;;;;25.90;96.00;;;;;;6191318;23;19910;-41
2021/07/31 02:27:56;;;;;;;;;;;25.90;96.10;;;;;;6191789;23;19908;-42
2021/07/31 02:30:23;;;;;;;;;;;25.90;96.20;;;;;;6165327;23;19900;-44
2021/07/31 02:32:49;;;;;;;;;;;25.90;96.30;;;;;;6165914;22;19950;-42
2021/07/31 02:35:15;;;;;;;;;;;25.90;96.20;;;;;;6191708;22;19904;-41
2021/07/31 02:37:42;;;;;;;;;;;25.90;96.30;;;;;;6191578;22;19923;-41
2021/07/31 02:40:08;;;;;;;;;;;25.90;96.40;;;;;;6191684;23;19919;-44
2021/07/31 02:42:34;;;;;;;;;;;25.90;96.40;;;;;;6191882;23;20192;-41
2021/07/31 02:45:01;;;;;;;;;;;25.90;96.50;;;;;;6191557;23;19900;-42
2021/07/31 02:47:28;;;;;;;;;;;25.90;96.40;;;;;;6191835;23;19915;-41
2021/07/31 02:49:54;;;;;;;;;;;25.90;96.40;;;;;;6191854;23;20212;-42
2021/07/31 02:52:20;;;;;;;;;;;25.90;96.40;;;;;;6191814;22;19916;-42
2021/07/31 02:54:46;;;;;;;;;;;25.90;96.40;;;;;;6191495;23;19900;-44
2021/07/31 02:57:13;;;;;;;;;;;25.90;96.40;;;;;;6165562;23;19920;-43
2021/07/31 02:59:39;;;;;;;;;;;25.90;96.60;;;;;;6191862;22;19944;-41
2021/07/31 03:02:05;;;;;;;;;;;25.90;96.70;;;;;;6191578;23;19900;-44
2021/07/31 03:04:31;;;;;;;;;;;25.90;96.70;;;;;;6191817;23;19901;-41
2021/07/31 03:06:57;;;;;;;;;;;25.90;96.80;;;;;;6191481;22;19949;-42
2021/07/31 03:09:24;;;;;;;;;;;25.90;96.90;;;;;;6191235;23;19904;-46
2021/07/31 03:11:50;;;;;;;;;;;25.80;96.80;;;;;;6191479;22;20192;-43
2021/07/31 03:14:16;;;;;;;;;;;25.90;96.80;;;;;;6193541;23;19908;-42
2021/07/31 03:16:42;;;;;;;;;;;25.90;96.70;;;;;;6192705;23;19922;-41
2021/07/31 03:19:08;;;;;;;;;;;25.90;96.70;;;;;;6193593;22;19908;-41
2021/07/31 03:21:35;;;;;;;;;;;25.90;96.70;;;;;;6192960;23;20127;-41
2021/07/31 03:24:01;;;;;;;;;;;25.90;96.70;;;;;;6191894;22;19905;-46
2021/07/31 03:26:27;;;;;;;;;;;25.80;96.80;;;;;;6167002;23;19916;-57
2021/07/31 03:28:58;;;;;;;;;;;25.80;96.80;;;;;;6166891;23;19907;-41
2021/07/31 03:31:24;;;;;;;;;;;25.90;96.80;;;;;;6192965;22;19906;-43
2021/07/31 03:33:50;;;;;;;;;;;25.90;96.80;;;;;;6193354;23;19937;-51
2021/07/31 03:36:17;;;;;;;;;;;25.90;96.70;;;;;;6161475;23;20212;-54
2021/07/31 03:38:43;;;;;;;;;;;25.90;96.80;;;;;;6162503;23;19907;-51
2021/07/31 03:41:09;;;;;;;;;;;25.90;96.90;;;;;;6162916;23;19972;-46
2021/07/31 03:43:36;;;;;;;;;;;25.90;96.70;;;;;;6163082;23;19900;-43
2021/07/31 03:46:06;;;;;;;;;;;25.90;96.70;;;;;;6161793;23;19912;-42
2021/07/31 03:48:33;;;;;;;;;;;25.90;96.60;;;;;;6162878;23;19923;-41
2021/07/31 03:50:59;;;;;;;;;;;25.90;96.60;;;;;;6163755;23;19909;-45
2021/07/31 03:53:25;;;;;;;;;;;25.90;96.50;;;;;;6162603;23;19952;-44
2021/07/31 03:55:51;;;;;;;;;;;25.90;96.50;;;;;;6161782;23;19960;-46
2021/07/31 03:58:18;;;;;;;;;;;25.90;96.50;;;;;;6163131;23;19972;-44
2021/07/31 04:00:44;;;;;;;;;;;26.00;96.50;;;;;;6163419;23;19960;-44
2021/07/31 04:03:10;;;;;;;;;;;25.90;96.40;;;;;;6162794;23;19908;-51
2021/07/31 04:05:39;;;;;;;;;;;25.90;96.40;;;;;;6163425;23;19913;-45
2021/07/31 04:08:06;;;;;;;;;;;26.00;96.30;;;;;;6162486;23;19900;-45
2021/07/31 04:10:32;;;;;;;;;;;25.90;96.40;;;;;;6163228;23;19916;-50
2021/07/31 04:12:58;;;;;;;;;;;25.90;96.30;;;;;;6163021;23;20234;-51
2021/07/31 04:15:24;;;;;;;;;;;26.00;96.40;;;;;;6163443;23;20173;-50
2021/07/31 04:17:51;;;;;;;;;;;25.90;96.30;;;;;;6161283;23;19911;-44
2021/07/31 04:20:17;;;;;;;;;;;25.90;96.40;;;;;;6163340;23;19916;-44
2021/07/31 04:22:43;;;;;;;;;;;25.90;96.40;;;;;;6162407;23;19901;-44
2021/07/31 04:25:09;;;;;;;;;;;26.00;96.50;;;;;;6162517;23;19909;-41
2021/07/31 04:27:35;;;;;;;;;;;25.90;96.40;;;;;;6162766;23;19908;-49
2021/07/31 04:30:02;;;;;;;;;;;26.00;96.50;;;;;;6162987;23;20156;-43
2021/07/31 04:32:28;;;;;;;;;;;26.00;96.40;;;;;;6162550;23;20126;-51
2021/07/31 04:34:54;;;;;;;;;;;26.00;96.40;;;;;;6162754;23;19950;-51
2021/07/31 04:37:20;;;;;;;;;;;26.00;96.40;;;;;;6184550;23;19912;-46
2021/07/31 04:39:47;;;;;;;;;;;26.00;96.50;;;;;;6192133;23;20289;-51
2021/07/31 04:42:13;;;;;;;;;;;26.00;96.50;;;;;;6192553;23;19919;-47
2021/07/31 04:57:26;;;;;;;;;;;26.00;96.30;;;;;;5081767;28;19936;-45
2021/07/31 04:59:52;;;;;;;;;;;26.20;96.00;;;;;;5081267;28;19915;-42
2021/07/31 05:02:18;;;;;;;;;;;26.20;96.00;;;;;;5081490;28;20053;-44
2021/07/31 05:04:45;;;;;;;;;;;26.20;96.10;;;;;;5081291;28;20200;-44
2021/07/31 05:07:11;;;;;;;;;;;26.10;96.10;;;;;;5081668;28;19959;-42
2021/07/31 05:09:37;;;;;;;;;;;26.10;96.20;;;;;;5080990;28;19913;-42
2021/07/31 05:12:03;;;;;;;;;;;26.10;96.30;;;;;;5080855;28;20131;-42
2021/07/31 05:14:34;;;;;;;;;;;26.00;96.30;;;;;;5080945;28;19916;-45
2021/07/31 05:17:00;;;;;;;;;;;26.00;96.40;;;;;;5080647;28;19944;-41
2021/07/31 05:19:26;;;;;;;;;;;26.00;96.40;;;;;;5080078;28;20100;-42
2021/07/31 05:21:55;;;;;;;;;;;26.00;96.40;;;;;;5081434;28;19960;-49
2021/07/31 05:24:21;;;;;;;;;;;26.00;96.40;;;;;;5080977;28;20274;-42
2021/07/31 05:26:48;;;;;;;;;;;26.00;96.40;;;;;;5081380;28;19913;-45
2021/07/31 05:29:14;;;;;;;;;;;26.00;96.40;;;;;;5080813;28;20203;-45
2021/07/31 05:31:40;;;;;;;;;;;26.00;96.40;;;;;;5080903;28;19966;-47
2021/07/31 05:34:06;;;;;;;;;;;26.00;96.40;;;;;;5080654;28;19905;-50
2021/07/31 05:36:35;;;;;;;;;;;26.00;96.40;;;;;;5081026;28;19940;-44
2021/07/31 05:39:02;;;;;;;;;;;26.00;96.50;;;;;;5080498;28;20127;-47
2021/07/31 05:41:28;;;;;;;;;;;26.00;96.50;;;;;;5080771;28;19920;-46
2021/07/31 05:43:54;;;;;;;;;;;26.00;96.50;;;;;;5080475;28;19972;-49
2021/07/31 05:46:20;;;;;;;;;;;25.90;96.50;;;;;;5080551;28;19920;-49
2021/07/31 05:48:46;;;;;;;;;;;25.90;96.50;;;;;;5080296;28;19908;-48
2021/07/31 05:51:13;;;;;;;;;;;25.90;96.40;;;;;;5080674;28;19912;-48
2021/07/31 05:53:39;;;;;;;;;;;25.90;96.40;;;;;;5080240;28;19912;-49
2021/07/31 05:56:09;;;;;;;;;;;25.90;96.50;;;;;;5075640;28;20201;-41
2021/07/31 05:58:36;;;;;;;;;;;25.90;96.50;;;;;;5067234;28;19915;-44
2021/07/31 06:01:05;;;;;;;;;;;25.90;96.50;;;;;;5067102;28;19909;-45
2021/07/31 06:03:32;;;;;;;;;;;25.90;96.50;;;;;;5066966;28;19943;-46
2021/07/31 06:05:58;;;;;;;;;;;25.90;96.50;;;;;;5067050;28;19913;-49
2021/07/31 06:08:25;;;;;;;;;;;25.90;96.50;;;;;;5066741;28;19908;-44
2021/07/31 06:10:51;;;;;;;;;;;25.90;96.50;;;;;;5067131;28;20180;-46
2021/07/31 06:13:17;;;;;;;;;;;25.90;96.50;;;;;;5066787;28;19908;-46
2021/07/31 06:15:43;;;;;;;;;;;25.90;96.50;;;;;;5066763;28;19947;-47
2021/07/31 06:18:10;;;;;;;;;;;25.90;96.50;;;;;;5066634;28;19932;-49
2021/07/31 06:20:36;;;;;;;;;;;25.90;96.50;;;;;;5066729;28;19909;-47
2021/07/31 06:23:02;;;;;;;;;;;25.90;96.50;;;;;;5066693;28;20100;-47
2021/07/31 06:25:28;;;;;;;;;;;25.90;96.50;;;;;;5066297;28;19919;-44
2021/07/31 06:27:55;;;;;;;;;;;25.90;96.50;;;;;;5066394;28;19916;-49
2021/07/31 06:30:21;;;;;;;;;;;25.90;96.40;;;;;;5066293;28;19909;-44
2021/07/31 06:32:50;;;;;;;;;;;25.90;96.40;;;;;;5066300;28;19908;-43
2021/07/31 06:35:16;;;;;;;;;;;25.80;96.40;;;;;;5066136;28;19951;-42
2021/07/31 06:37:42;;;;;;;;;;;25.80;96.40;;;;;;5066003;28;19964;-47
2021/07/31 06:40:09;;;;;;;;;;;25.80;96.50;;;;;;5066153;28;21150;-48
2021/07/31 06:42:35;;;;;;;;;;;25.90;96.50;;;;;;5066235;28;19909;-46
2021/07/31 06:45:01;;;;;;;;;;;25.80;96.40;;;;;;5065833;28;19909;-45
2021/07/31 06:47:27;;;;;;;;;;;25.80;96.40;;;;;;5065854;28;19909;-45
2021/07/31 06:49:53;;;;;;;;;;;25.80;96.40;;;;;;5066179;28;19975;-44
2021/07/31 06:52:20;;;;;;;;;;;25.80;96.40;;;;;;5065782;28;19916;-50
2021/07/31 06:54:46;;;;;;;;;;;25.80;96.40;;;;;;5065713;28;20237;-40
2021/07/31 06:57:12;;;;;;;;;;;25.80;96.50;;;;;;5065690;28;20184;-50
2021/07/31 06:59:38;;;;;;;;;;;25.70;96.40;;;;;;5065934;28;20100;-45
2021/07/31 07:02:05;;;;;;;;;;;25.80;96.50;;;;;;5066215;28;19913;-50
2021/07/31 07:04:31;;;;;;;;;;;25.80;96.40;;;;;;5065810;28;19908;-45
2021/07/31 07:07:01;;;;;;;;;;;25.70;96.40;;;;;;5066258;28;20180;-43
2021/07/31 07:09:27;;;;;;;;;;;25.70;96.40;;;;;;5064831;28;20204;-47
2021/07/31 07:11:53;;;;;;;;;;;25.70;96.40;;;;;;5066213;28;19920;-45
2021/07/31 07:14:20;;;;;;;;;;;25.70;96.40;;;;;;5065733;28;19905;-46
2021/07/31 07:16:46;;;;;;;;;;;25.70;96.40;;;;;;5065955;28;19912;-51
2021/07/31 07:19:12;;;;;;;;;;;25.70;96.50;;;;;;5065539;28;19926;-43
2021/07/31 07:21:38;;;;;;;;;;;25.70;96.50;;;;;;5065400;28;19952;-44
2021/07/31 07:24:04;;;;;;;;;;;25.70;96.50;;;;;;5064964;28;19946;-48
2021/07/31 07:26:30;;;;;;;;;;;25.70;96.50;;;;;;5065756;28;20104;-44
2021/07/31 07:28:56;;;;;;;;;;;25.70;96.50;;;;;;5065281;28;19971;-47
2021/07/31 07:31:23;;;;;;;;;;;25.70;96.50;;;;;;5065587;28;19954;-45
2021/07/31 07:33:49;;;;;;;;;;;25.70;96.50;;;;;;5065482;28;19980;-45
2021/07/31 07:36:18;;;;;;;;;;;25.70;96.50;;;;;;5065237;28;19913;-44
2021/07/31 07:38:45;;;;;;;;;;;25.70;96.50;;;;;;5064852;28;19940;-48
2021/07/31 07:41:13;;;;;;;;;;;25.70;96.50;;;;;;5065077;28;19928;-45
2021/07/31 07:43:39;;;;;;;;;;;25.70;96.50;;;;;;5064865;28;19904;-44
2021/07/31 07:46:05;;;;;;;;;;;25.60;96.50;;;;;;5064805;28;20189;-45
2021/07/31 07:48:32;;;;;;;;;;;25.60;96.40;;;;;;5064852;28;19905;-46
2021/07/31 07:50:58;;;;;;;;;;;25.60;96.40;;;;;;5065038;28;19947;-47
2021/07/31 07:53:25;;;;;;;;;;;25.60;96.40;;;;;;5064805;28;19904;-47
2021/07/31 07:55:51;;;;;;;;;;;25.60;96.40;;;;;;5064526;28;20001;-45
2021/07/31 07:58:17;;;;;;;;;;;25.60;96.40;;;;;;5064897;28;20082;-45
2021/07/31 08:00:43;;;;;;;;;;;25.60;96.40;;;;;;5064794;28;20147;-49
2021/07/31 08:03:10;;;;;;;;;;;25.60;96.40;;;;;;5064432;28;20188;-44
2021/07/31 08:05:37;;;;;;;;;;;25.60;96.40;;;;;;5064490;28;19923;-50
2021/07/31 08:08:04;;;;;;;;;;;25.60;96.40;;;;;;5064468;28;20192;-49
2021/07/31 08:10:30;;;;;;;;;;;25.50;96.40;;;;;;5064579;28;19983;-46
2021/07/31 08:12:56;;;;;;;;;;;25.60;96.50;;;;;;5064460;28;19987;-50
2021/07/31 08:15:22;;;;;;;;;;;25.60;96.40;;;;;;5064499;28;19955;-43
2021/07/31 08:17:49;;;;;;;;;;;25.50;96.40;;;;;;5064348;28;19905;-44
2021/07/31 08:20:15;;;;;;;;;;;25.60;96.40;;;;;;5064232;28;20160;-46
2021/07/31 08:22:41;;;;;;;;;;;25.60;96.40;;;;;;5064391;28;19932;-44
2021/07/31 08:25:08;;;;;;;;;;;25.60;96.40;;;;;;5064511;28;19908;-48
2021/07/31 08:27:34;;;;;;;;;;;25.50;96.40;;;;;;5064315;28;19951;-48
2021/07/31 08:30:01;;;;;;;;;;;25.50;96.40;;;;;;5064321;28;19905;-49
2021/07/31 08:32:27;;;;;;;;;;;25.50;96.40;;;;;;5064164;28;19905;-48
2021/07/31 08:34:53;;;;;;;;;;;25.50;96.40;;;;;;5064203;28;19927;-47
2021/07/31 08:37:19;;;;;;;;;;;25.50;96.40;;;;;;5064337;28;19946;-48
2021/07/31 08:39:46;;;;;;;;;;;25.50;96.40;;;;;;5064177;28;19905;-46
2021/07/31 08:42:12;;;;;;;;;;;25.50;96.40;;;;;;5064624;28;20031;-42
2021/07/31 08:44:39;;;;;;;;;;;25.50;96.40;;;;;;5064046;28;19971;-45
2021/07/31 08:47:06;;;;;;;;;;;25.50;96.50;;;;;;5064512;28;19913;-46
2021/07/31 08:49:33;;;;;;;;;;;25.50;96.50;;;;;;5064032;28;19912;-43
2021/07/31 08:52:23;;;;;;;;;;;25.50;96.70;;;;;;5064541;28;19988;-42
2021/07/31 08:54:49;;;;;;;;;;;25.50;96.50;;;;;;5063796;28;20042;-43
2021/07/31 08:57:15;;;;;;;;;;;25.50;96.40;;;;;;5063985;28;19966;-46
2021/07/31 08:59:42;;;;;;;;;;;25.50;96.40;;;;;;5064082;28;19905;-45
2021/07/31 09:02:08;;;;;;;;;;;25.50;96.40;;;;;;5064317;28;19941;-43
2021/07/31 09:04:34;;;;;;;;;;;25.50;96.50;;;;;;5063918;28;20109;-43
2021/07/31 09:07:10;;;;;;;;;;;25.40;96.40;;;;;;5064449;28;20180;-43
2021/07/31 09:09:37;;;;;;;;;;;25.40;96.50;;;;;;5063977;28;19911;-45
2021/07/31 09:12:05;;;;;;;;;;;25.40;96.40;;;;;;5064370;28;19988;-47
2021/07/31 09:14:32;;;;;;;;;;;25.40;96.40;;;;;;5063798;28;19909;-47
2021/07/31 09:16:58;;;;;;;;;;;25.40;96.40;;;;;;5064299;28;19928;-43
2021/07/31 09:19:26;;;;;;;;;;;25.40;96.40;;;;;;5063900;28;19905;-42
2021/07/31 09:22:01;;;;;;;;;;;25.40;96.40;;;;;;5064232;28;19920;-49
2021/07/31 09:24:28;;;;;;;;;;;25.40;96.40;;;;;;5063754;28;19912;-45
2021/07/31 09:26:55;;;;;;;;;;;25.30;96.40;;;;;;5064083;28;19919;-46
2021/07/31 09:29:31;;;;;;;;;;;25.40;96.40;;;;;;5063629;28;19905;-44
2021/07/31 09:31:59;;;;;;;;;;;25.30;96.40;;;;;;5065982;28;20184;-47
2021/07/31 09:34:38;;;;;;;;;;;25.30;96.40;;;;;;5067467;28;19927;-42
2021/07/31 09:37:09;;;;;;;;;;;25.40;96.40;;;;;;5067881;28;19919;-43
2021/07/31 09:39:53;;;;;;;;;;;25.30;96.40;;;;;;5067376;28;19904;-46
2021/07/31 09:42:38;;;;;;;;;;;25.30;96.30;;;;;;5067543;28;19954;-45
2021/07/31 09:45:08;;;;;;;;;;;25.30;96.30;;;;;;5066914;28;19950;-44
2021/07/31 09:47:35;;;;;;;;;;;25.30;96.30;;;;;;5067463;28;19937;-45
2021/07/31 09:50:02;;;;;;;;;;;25.30;96.30;;;;;;5067137;28;20247;-48
2021/07/31 09:52:29;;;;;;;;;;;25.30;96.20;;;;;;5066968;28;19913;-48
2021/07/31 09:54:57;;;;;;;;;;;25.30;96.30;;;;;;5067066;28;20193;-43
2021/07/31 09:57:24;;;;;;;;;;;25.30;96.20;;;;;;5066960;28;19924;-43
2021/07/31 09:59:50;;;;;;;;;;;25.30;96.20;;;;;;5066950;28;19968;-45
2021/07/31 10:02:17;;;;;;;;;;;25.30;96.20;;;;;;5067082;28;19905;-42
2021/07/31 10:04:45;;;;;;;;;;;25.20;96.20;;;;;;5066835;28;20173;-48
2021/07/31 10:07:12;;;;;;;;;;;25.30;96.20;;;;;;5067223;28;19913;-42
2021/07/31 10:09:41;;;;;;;;;;;25.20;96.30;;;;;;5066920;28;19972;-44
2021/07/31 10:12:11;;;;;;;;;;;25.20;96.30;;;;;;5067176;28;19987;-41
2021/07/31 10:14:39;;;;;;;;;;;25.20;96.30;;;;;;5066359;28;19932;-42
2021/07/31 10:17:06;;;;;;;;;;;25.20;96.30;;;;;;5066952;28;19920;-45
2021/07/31 10:19:43;;;;;;;;;;;25.20;96.30;;;;;;5066387;28;20242;-44
2021/07/31 10:22:10;;;;;;;;;;;25.20;96.30;;;;;;5065306;28;20188;-45
2021/07/31 10:24:55;;;;;;;;;;;25.20;96.30;;;;;;5066183;28;19908;-46
2021/07/31 10:27:23;;;;;;;;;;;25.20;96.40;;;;;;5066119;28;20208;-47
2021/07/31 10:29:50;;;;;;;;;;;25.20;96.30;;;;;;5066009;28;19947;-42
2021/07/31 10:32:19;;;;;;;;;;;25.20;96.30;;;;;;5066357;28;19905;-48
2021/07/31 10:34:46;;;;;;;;;;;25.20;96.30;;;;;;5066012;28;20197;-42
2021/07/31 10:37:36;;;;;;;;;;;25.20;96.30;;;;;;5066634;28;20252;-51
2021/07/31 10:40:04;;;;;;;;;;;25.20;96.40;;;;;;5066289;28;19942;-43
2021/07/31 10:42:48;;;;;;;;;;;25.10;96.40;;;;;;5066011;28;19912;-42
2021/07/31 10:45:18;;;;;;;;;;;25.20;96.40;;;;;;5065862;28;20295;-43
2021/07/31 10:47:45;;;;;;;;;;;25.20;96.40;;;;;;5066991;28;20160;-44
2021/07/31 10:50:20;;;;;;;;;;;25.20;96.40;;;;;;5065741;28;19935;-44
2021/07/31 10:52:50;;;;;;;;;;;25.20;96.40;;;;;;5066716;28;20219;-48
2021/07/31 10:55:17;;;;;;;;;;;25.20;96.50;;;;;;5066187;28;19943;-45
2021/07/31 10:57:58;;;;;;;;;;;25.20;96.50;;;;;;5066254;28;20144;-46
2021/07/31 11:00:25;;;;;;;;;;;25.20;96.50;;;;;;5066584;28;19912;-46
2021/07/31 11:02:52;;;;;;;;;;;25.20;96.50;;;;;;5065837;28;19936;-45
2021/07/31 11:05:18;;;;;;;;;;;25.20;96.60;;;;;;5065676;28;19912;-42
2021/07/31 11:07:56;;;;;;;;;;;25.20;96.60;;;;;;5066042;28;19908;-46
2021/07/31 11:10:30;;;;;;;;;;;25.20;96.60;;;;;;5065667;28;19955;-47
2021/07/31 11:12:57;;;;;;;;;;;25.20;96.60;;;;;;5065638;28;20158;-44
2021/07/31 11:15:23;;;;;;;;;;;25.20;96.60;;;;;;5065594;28;19944;-43
2021/07/31 11:18:02;;;;;;;;;;;25.20;96.60;;;;;;5065450;28;19980;-45
2021/07/31 11:20:30;;;;;;;;;;;25.20;96.60;;;;;;5065625;28;19916;-48
2021/07/31 11:22:57;;;;;;;;;;;25.20;96.60;;;;;;5065084;28;19908;-52
2021/07/31 11:25:23;;;;;;;;;;;25.20;96.70;;;;;;5065401;28;19956;-48
2021/07/31 11:28:08;;;;;;;;;;;25.20;96.70;;;;;;5065328;28;19936;-44
2021/07/31 11:30:38;;;;;;;;;;;25.20;96.70;;;;;;5065279;28;20088;-46
2021/07/31 11:33:19;;;;;;;;;;;25.20;96.70;;;;;;5065245;28;19909;-44
2021/07/31 11:35:46;;;;;;;;;;;25.30;96.80;;;;;;5065313;28;20205;-44
2021/07/31 11:38:32;;;;;;;;;;;25.30;96.80;;;;;;5064984;28;19915;-44
2021/07/31 11:40:59;;;;;;;;;;;25.30;96.80;;;;;;5065171;28;19962;-49
2021/07/31 11:43:25;;;;;;;;;;;25.30;96.90;;;;;;5063916;28;19920;-50
2021/07/31 11:45:51;;;;;;;;;;;25.30;96.90;;;;;;5065327;28;19913;-48
2021/07/31 11:48:18;;;;;;;;;;;25.30;96.90;;;;;;5064832;28;19936;-45
2021/07/31 11:51:03;;;;;;;;;;;25.30;97.00;;;;;;5064885;28;19944;-51
2021/07/31 11:53:29;;;;;;;;;;;25.30;97.00;;;;;;5064633;28;19911;-45
2021/07/31 11:56:11;;;;;;;;;;;25.30;97.00;;;;;;5064380;28;19921;-43
2021/07/31 11:58:37;;;;;;;;;;;25.40;97.10;;;;;;5064790;28;20193;-47
2021/07/31 12:01:06;;;;;;;;;;;25.40;97.10;;;;;;5064768;28;19990;-45
2021/07/31 12:03:41;;;;;;;;;;;25.40;97.10;;;;;;5064721;28;19962;-47
2021/07/31 12:06:26;;;;;;;;;;;25.50;97.10;;;;;;5064537;28;19916;-46
2021/07/31 12:08:52;;;;;;;;;;;25.40;97.10;;;;;;5063436;28;19931;-49
2021/07/31 12:11:37;;;;;;;;;;;25.50;97.20;;;;;;5064444;28;19920;-45
2021/07/31 12:14:21;;;;;;;;;;;25.50;97.10;;;;;;5064367;28;19911;-47
2021/07/31 12:16:47;;;;;;;;;;;25.60;97.10;;;;;;5064679;28;19913;-42
2021/07/31 12:19:14;;;;;;;;;;;25.60;97.10;;;;;;5064444;28;19932;-46
2021/07/31 12:21:40;;;;;;;;;;;25.60;97.00;;;;;;5064931;28;19944;-46
2021/07/31 12:24:15;;;;;;;;;;;25.70;97.00;;;;;;5064361;28;19905;-44
2021/07/31 12:26:50;;;;;;;;;;;25.70;96.90;;;;;;5064660;28;19913;-49
2021/07/31 12:29:32;;;;;;;;;;;25.70;96.90;;;;;;5064269;28;19920;-50
2021/07/31 12:32:17;;;;;;;;;;;25.70;96.80;;;;;;5064116;28;19904;-43
2021/07/31 12:34:43;;;;;;;;;;;25.70;96.80;;;;;;5064136;28;20101;-41
2021/07/31 12:37:09;;;;;;;;;;;25.70;96.80;;;;;;5064230;28;20219;-49
2021/07/31 12:39:35;;;;;;;;;;;25.70;96.80;;;;;;5063785;28;20189;-47
2021/07/31 12:42:01;;;;;;;;;;;25.80;96.80;;;;;;5064006;28;19904;-45
2021/07/31 12:44:28;;;;;;;;;;;25.80;96.90;;;;;;5064042;28;19915;-43
2021/07/31 12:46:54;;;;;;;;;;;25.80;96.80;;;;;;5062869;28;19927;-50
2021/07/31 12:49:20;;;;;;;;;;;25.80;96.70;;;;;;5064026;28;19905;-47
2021/07/31 12:51:46;;;;;;;;;;;25.80;96.70;;;;;;5064218;28;19946;-50
2021/07/31 12:54:12;;;;;;;;;;;25.80;96.60;;;;;;5064587;28;19913;-48
2021/07/31 12:56:38;;;;;;;;;;;25.80;96.70;;;;;;5063818;28;19992;-46
2021/07/31 12:59:04;;;;;;;;;;;25.80;96.60;;;;;;5064583;28;19913;-45
2021/07/31 13:01:31;;;;;;;;;;;25.90;96.60;;;;;;5064059;28;19905;-50
2021/07/31 13:03:57;;;;;;;;;;;25.90;96.50;;;;;;5064451;28;19913;-46
2021/07/31 13:06:23;;;;;;;;;;;25.90;96.50;;;;;;5065068;28;19915;-46
2021/07/31 13:08:49;;;;;;;;;;;25.90;96.40;;;;;;5068029;28;19984;-42
2021/07/31 13:11:18;;;;;;;;;;;25.90;96.30;;;;;;5068263;28;19932;-41
2021/07/31 13:13:44;;;;;;;;;;;25.90;96.30;;;;;;5067009;28;20323;-42
2021/07/31 13:16:10;;;;;;;;;;;25.90;96.30;;;;;;5067923;28;19912;-51
2021/07/31 13:18:37;;;;;;;;;;;26.00;96.40;;;;;;5068311;28;19979;-43
2021/07/31 13:21:04;;;;;;;;;;;25.90;96.30;;;;;;5067633;28;19946;-50
2021/07/31 13:23:34;;;;;;;;;;;26.00;96.40;;;;;;5068059;28;19946;-47
2021/07/31 13:26:00;;;;;;;;;;;26.00;96.40;;;;;;5067619;28;19909;-48
2021/07/31 13:28:29;;;;;;;;;;;26.00;96.30;;;;;;5066560;28;19975;-45
2021/07/31 13:30:55;;;;;;;;;;;26.00;96.10;;;;;;5067611;28;19905;-44
2021/07/31 13:33:22;;;;;;;;;;;26.00;96.10;;;;;;5068034;28;19984;-42
2021/07/31 13:35:50;;;;;;;;;;;26.10;96.20;;;;;;5067408;28;20217;-44
2021/07/31 13:38:17;;;;;;;;;;;26.10;96.20;;;;;;5067408;28;19920;-42
2021/07/31 13:40:46;;;;;;;;;;;26.00;95.70;;;;;;5064872;28;19983;-42
2021/07/31 13:43:17;;;;;;;;;;;26.10;96.10;;;;;;5067287;28;19913;-41
2021/07/31 13:45:43;;;;;;;;;;;26.00;96.00;;;;;;5066961;28;19912;-44
2021/07/31 13:48:09;;;;;;;;;;;26.00;95.80;;;;;;5067700;28;19917;-42
2021/07/31 13:50:35;;;;;;;;;;;26.10;96.10;;;;;;5067259;28;20402;-39
2021/07/31 13:53:01;;;;;;;;;;;26.10;96.00;;;;;;5066195;28;19913;-47
2021/07/31 13:55:28;;;;;;;;;;;26.10;95.80;;;;;;5066527;28;19975;-41
2021/07/31 13:57:54;;;;;;;;;;;26.20;95.70;;;;;;5067969;28;19955;-42
2021/07/31 14:00:21;;;;;;;;;;;26.20;95.60;;;;;;5067199;28;19912;-46
2021/07/31 14:02:47;;;;;;;;;;;26.20;95.60;;;;;;5067315;28;19963;-41
2021/07/31 14:05:16;;;;;;;;;;;26.20;95.70;;;;;;5067285;28;20023;-42
2021/07/31 14:07:43;;;;;;;;;;;26.20;95.70;;;;;;5067338;28;19913;-43
2021/07/31 14:10:10;;;;;;;;;;;26.30;95.70;;;;;;5066927;28;19912;-43
2021/07/31 14:12:36;;;;;;;;;;;26.30;95.80;;;;;;5066947;28;19913;-47
2021/07/31 14:15:02;;;;;;;;;;;26.30;95.60;;;;;;5066885;28;20097;-49
2021/07/31 14:17:28;;;;;;;;;;;26.30;95.70;;;;;;5065214;28;19913;-45
2021/07/31 14:19:55;;;;;;;;;;;26.30;95.30;;;;;;5066516;28;19905;-44
2021/07/31 14:22:21;;;;;;;;;;;26.30;95.00;;;;;;5066952;28;20142;-45
2021/07/31 14:24:47;;;;;;;;;;;26.40;95.20;;;;;;5066720;28;19943;-41
2021/07/31 14:27:13;;;;;;;;;;;26.40;94.90;;;;;;5066432;28;19913;-44
2021/07/31 14:29:40;;;;;;;;;;;26.50;94.70;;;;;;5066652;28;19911;-46
2021/07/31 14:32:07;;;;;;;;;;;26.60;94.40;;;;;;5066419;28;19967;-45